createdAt,value
2023-05-08T00:01:11.497Z,18.90
2023-05-08T00:03:39.260Z,18.90
2023-05-08T00:06:06.915Z,18.80
2023-05-08T00:08:34.022Z,18.80
2023-05-08T00:11:01.100Z,18.80
2023-05-08T00:13:28.210Z,18.40
2023-05-08T00:15:55.267Z,18.70
2023-05-08T00:18:22.356Z,18.70
2023-05-08T00:20:49.430Z,18.80
2023-05-08T00:23:16.523Z,19.10
2023-05-08T00:25:43.626Z,18.60
2023-05-08T00:28:10.709Z,18.80
2023-05-08T00:30:37.755Z,18.10
2023-05-08T00:33:04.969Z,18.80
2023-05-08T00:35:32.033Z,19.00
2023-05-08T00:37:59.154Z,18.80
2023-05-08T00:40:26.879Z,18.80
2023-05-08T00:42:54.044Z,18.80
2023-05-08T00:45:21.108Z,18.80
2023-05-08T00:47:49.663Z,18.90
2023-05-08T00:50:17.636Z,19.00
2023-05-08T00:52:44.988Z,19.00
2023-05-08T00:55:12.581Z,18.90
2023-05-08T00:57:39.880Z,19.00
2023-05-08T01:00:08.294Z,18.70
2023-05-08T01:02:36.108Z,19.00
2023-05-08T01:05:03.860Z,19.20
2023-05-08T01:07:30.972Z,18.90
2023-05-08T01:09:58.163Z,18.30
2023-05-08T01:12:37.372Z,18.90
2023-05-08T01:15:18.370Z,18.90
2023-05-08T01:18:01.309Z,18.80
2023-05-08T01:20:41.998Z,18.90
2023-05-08T01:23:24.571Z,18.80
2023-05-08T01:26:27.903Z,18.80
2023-05-08T01:29:19.807Z,18.80
2023-05-08T01:32:14.300Z,18.80
2023-05-08T01:35:05.959Z,18.80
2023-05-08T01:37:49.300Z,18.80
2023-05-08T01:40:37.703Z,18.80
2023-05-08T01:43:30.194Z,18.80
2023-05-08T01:46:02.620Z,18.70
2023-05-08T01:48:44.272Z,18.80
2023-05-08T01:51:22.656Z,19.00
2023-05-08T01:53:58.470Z,19.00
2023-05-08T01:56:28.406Z,18.90
2023-05-08T01:58:58.048Z,18.90
2023-05-08T02:01:29.049Z,18.90
2023-05-08T02:03:57.899Z,18.90
2023-05-08T02:06:26.955Z,18.90
2023-05-08T02:08:55.967Z,19.10
2023-05-08T02:11:24.682Z,18.90
2023-05-08T02:13:53.588Z,18.90
2023-05-08T02:16:21.753Z,18.90
2023-05-08T02:18:52.933Z,18.80
2023-05-08T02:21:22.052Z,18.80
2023-05-08T02:23:50.543Z,18.70
2023-05-08T02:26:20.960Z,18.70
2023-05-08T02:28:50.606Z,18.80
2023-05-08T02:31:19.004Z,18.30
2023-05-08T02:33:47.702Z,18.70
2023-05-08T02:36:17.611Z,18.80
2023-05-08T02:38:48.203Z,18.90
2023-05-08T02:41:17.835Z,18.90
2023-05-08T02:43:45.770Z,18.90
2023-05-08T02:46:25.078Z,18.80
2023-05-08T02:49:38.433Z,18.90
2023-05-08T02:52:22.352Z,18.90
2023-05-08T02:55:04.408Z,18.80
2023-05-08T02:58:09.053Z,18.80
2023-05-08T03:00:44.038Z,18.90
2023-05-08T03:03:21.205Z,19.10
2023-05-08T03:05:52.710Z,18.70
2023-05-08T03:08:27.695Z,18.70
2023-05-08T03:10:58.913Z,18.90
2023-05-08T03:13:29.335Z,18.60
2023-05-08T03:16:00.595Z,18.60
2023-05-08T03:18:33.654Z,18.60
2023-05-08T03:21:01.154Z,18.60
2023-05-08T03:23:30.948Z,18.30
2023-05-08T03:25:59.746Z,18.60
2023-05-08T03:28:31.762Z,18.70
2023-05-08T03:31:00.055Z,19.00
2023-05-08T03:33:28.890Z,18.90
2023-05-08T03:35:57.574Z,18.80
2023-05-08T03:38:24.886Z,18.80
2023-05-08T03:40:52.511Z,18.90
2023-05-08T03:43:21.631Z,19.10
2023-05-08T03:45:49.001Z,18.60
2023-05-08T03:48:17.424Z,18.90
2023-05-08T03:50:45.174Z,18.90
2023-05-08T03:53:12.254Z,18.80
2023-05-08T03:55:40.776Z,18.80
2023-05-08T03:58:28.464Z,18.80
2023-05-08T04:01:24.435Z,19.40
2023-05-08T04:04:11.844Z,18.80
2023-05-08T04:07:19.899Z,18.90
2023-05-08T04:09:55.142Z,18.80
2023-05-08T04:12:27.529Z,18.60
2023-05-08T04:14:59.645Z,18.80
2023-05-08T04:17:53.531Z,18.80
2023-05-08T04:20:24.442Z,18.80
2023-05-08T04:22:54.158Z,18.80
2023-05-08T04:25:21.870Z,18.80
2023-05-08T04:27:51.240Z,18.70
2023-05-08T04:30:18.635Z,18.70
2023-05-08T04:32:47.206Z,18.70
2023-05-08T04:35:14.618Z,18.70
2023-05-08T04:37:45.370Z,18.70
2023-05-08T04:40:12.684Z,18.70
2023-05-08T04:42:42.799Z,18.70
2023-05-08T04:45:10.728Z,18.90
2023-05-08T04:47:38.036Z,18.70
2023-05-08T04:50:05.848Z,18.70
2023-05-08T04:52:32.962Z,18.70
2023-05-08T04:55:00.211Z,18.70
2023-05-08T04:57:27.268Z,18.90
2023-05-08T04:59:54.360Z,18.70
2023-05-08T05:02:21.451Z,18.80
2023-05-08T05:04:48.565Z,18.80
2023-05-08T05:07:15.654Z,18.70
2023-05-08T05:09:42.715Z,18.80
2023-05-08T05:12:09.965Z,18.70
2023-05-08T05:14:37.022Z,18.80
2023-05-08T05:17:04.310Z,18.70
2023-05-08T05:19:31.608Z,18.70
2023-05-08T05:21:59.823Z,18.70
2023-05-08T05:24:26.896Z,18.70
2023-05-08T05:26:53.955Z,18.60
2023-05-08T05:29:21.091Z,18.90
2023-05-08T05:31:48.295Z,18.70
2023-05-08T05:34:15.378Z,18.00
2023-05-08T05:36:42.434Z,18.70
2023-05-08T05:39:09.520Z,18.80
2023-05-08T05:41:36.594Z,19.10
2023-05-08T05:44:04.066Z,18.70
2023-05-08T05:46:32.364Z,18.70
2023-05-08T05:48:59.682Z,18.70
2023-05-08T05:51:27.676Z,18.60
2023-05-08T05:53:54.960Z,18.70
2023-05-08T05:56:23.128Z,18.70
2023-05-08T05:58:50.260Z,18.70
2023-05-08T06:01:17.507Z,18.70
2023-05-08T06:03:44.706Z,18.70
2023-05-08T06:06:12.429Z,18.70
2023-05-08T06:08:39.500Z,18.70
2023-05-08T06:11:06.672Z,18.70
2023-05-08T06:13:33.922Z,18.60
2023-05-08T06:16:01.255Z,18.80
2023-05-08T06:18:28.356Z,18.70
2023-05-08T06:20:58.851Z,18.70
2023-05-08T06:23:26.862Z,18.30
2023-05-08T06:25:54.543Z,18.60
2023-05-08T06:28:23.885Z,18.10
2023-05-08T06:30:51.031Z,18.10
2023-05-08T06:33:18.450Z,18.20
2023-05-08T06:35:49.282Z,18.20
2023-05-08T06:38:16.421Z,18.40
2023-05-08T06:40:44.446Z,18.40
2023-05-08T06:43:12.208Z,19.10
2023-05-08T06:45:40.183Z,18.60
2023-05-08T06:48:07.958Z,18.60
2023-05-08T06:50:39.155Z,18.60
2023-05-08T06:53:07.069Z,18.50
2023-05-08T06:55:34.220Z,18.30
2023-05-08T06:58:01.452Z,19.00
2023-05-08T07:00:28.548Z,18.40
2023-05-08T07:02:55.861Z,18.80
2023-05-08T07:05:23.223Z,18.60
2023-05-08T07:07:50.375Z,18.60
2023-05-08T07:10:19.836Z,18.60
2023-05-08T07:12:46.962Z,18.60
2023-05-08T07:15:25.489Z,19.30
2023-05-08T07:17:53.887Z,18.60
2023-05-08T07:20:21.602Z,18.60
2023-05-08T07:22:48.940Z,18.60
2023-05-08T07:25:16.110Z,18.50
2023-05-08T07:27:43.384Z,18.70
2023-05-08T07:30:11.219Z,18.50
2023-05-08T07:32:41.276Z,18.70
2023-05-08T07:35:11.008Z,18.80
2023-05-08T07:37:39.666Z,18.80
2023-05-08T07:40:07.562Z,18.80
2023-05-08T07:42:44.856Z,18.80
2023-05-08T07:45:13.681Z,18.80
2023-05-08T07:47:58.598Z,18.80
2023-05-08T07:50:26.500Z,18.60
2023-05-08T07:52:53.631Z,18.80
2023-05-08T07:55:21.525Z,18.70
2023-05-08T07:57:48.663Z,18.70
2023-05-08T08:00:16.492Z,18.80
2023-05-08T08:02:45.424Z,18.80
2023-05-08T08:05:13.287Z,18.70
2023-05-08T08:07:40.646Z,18.80
2023-05-08T08:10:08.437Z,19.30
2023-05-08T08:12:35.862Z,18.70
2023-05-08T08:15:03.576Z,18.60
2023-05-08T08:17:30.864Z,18.70
2023-05-08T08:19:57.985Z,18.70
2023-05-08T08:22:26.038Z,18.60
2023-05-08T08:24:55.942Z,18.80
2023-05-08T08:27:23.448Z,18.10
2023-05-08T08:29:52.513Z,18.70
2023-05-08T08:32:26.037Z,18.20
2023-05-08T08:34:53.161Z,17.80
2023-05-08T08:37:20.284Z,18.70
2023-05-08T08:39:48.390Z,18.00
2023-05-08T08:42:15.591Z,18.70
2023-05-08T08:44:42.913Z,18.80
2023-05-08T08:47:13.577Z,18.70
2023-05-08T08:49:46.826Z,18.70
2023-05-08T08:52:31.919Z,18.80
2023-05-08T08:55:01.776Z,18.40
2023-05-08T08:57:33.467Z,18.70
2023-05-08T09:00:05.097Z,18.70
2023-05-08T09:02:32.453Z,18.30
2023-05-08T09:05:00.088Z,18.10
2023-05-08T09:07:27.685Z,18.20
2023-05-08T09:09:55.184Z,18.30
2023-05-08T09:12:22.348Z,18.30
2023-05-08T09:14:50.632Z,18.40
2023-05-08T09:17:17.665Z,18.50
2023-05-08T09:19:45.152Z,17.70
2023-05-08T09:22:12.845Z,18.30
2023-05-08T09:25:12.702Z,18.30
2023-05-08T09:27:40.004Z,18.10
2023-05-08T09:30:09.984Z,17.90
2023-05-08T09:32:42.413Z,17.70
2023-05-08T09:35:11.460Z,17.60
2023-05-08T09:37:40.634Z,17.50
2023-05-08T09:40:23.211Z,17.50
2023-05-08T09:42:50.812Z,17.40
2023-05-08T09:45:32.179Z,17.40
2023-05-08T09:47:59.616Z,17.40
2023-05-08T09:50:27.552Z,17.30
2023-05-08T09:52:54.713Z,17.40
2023-05-08T09:55:21.891Z,17.30
2023-05-08T09:57:57.547Z,16.90
2023-05-08T10:00:29.418Z,17.40
2023-05-08T10:03:01.370Z,17.20
2023-05-08T10:05:31.171Z,17.20
2023-05-08T10:08:17.812Z,17.20
2023-05-08T10:10:44.867Z,17.20
2023-05-08T10:13:11.975Z,17.20
2023-05-08T10:15:42.904Z,17.20
2023-05-08T10:18:11.917Z,17.20
2023-05-08T10:20:42.164Z,17.70
2023-05-08T10:23:14.394Z,17.50
2023-05-08T10:25:45.783Z,17.20
2023-05-08T10:28:31.990Z,17.40
2023-05-08T10:31:02.865Z,17.40
2023-05-08T10:33:34.063Z,17.40
2023-05-08T10:36:01.699Z,17.30
2023-05-08T10:38:31.122Z,17.30
2023-05-08T10:41:01.336Z,17.20
2023-05-08T10:43:31.051Z,17.30
2023-05-08T10:46:02.357Z,17.20
2023-05-08T10:48:36.544Z,17.20
2023-05-08T10:51:19.103Z,17.20
2023-05-08T10:54:28.063Z,17.20
2023-05-08T10:57:09.483Z,17.20
2023-05-08T10:59:40.553Z,16.40
2023-05-08T11:02:08.419Z,17.20
2023-05-08T11:04:35.675Z,17.20
2023-05-08T11:07:04.341Z,17.30
2023-05-08T11:09:46.835Z,17.30
2023-05-08T11:12:28.562Z,17.30
2023-05-08T11:15:13.609Z,17.30
2023-05-08T11:17:46.567Z,17.30
2023-05-08T11:20:13.849Z,17.40
2023-05-08T11:22:47.620Z,17.40
2023-05-08T11:25:14.802Z,17.40
2023-05-08T11:27:51.196Z,17.40
2023-05-08T11:30:35.147Z,17.40
2023-05-08T11:33:05.637Z,17.40
2023-05-08T11:35:51.723Z,17.50
2023-05-08T11:38:32.290Z,17.50
2023-05-08T11:41:03.993Z,17.40
2023-05-08T11:43:33.825Z,17.50
2023-05-08T11:46:04.140Z,17.50
2023-05-08T11:48:35.537Z,17.50
2023-05-08T11:51:03.527Z,17.40
2023-05-08T11:53:31.336Z,17.50
2023-05-08T11:55:59.647Z,17.60
2023-05-08T11:58:29.888Z,17.40
2023-05-08T12:00:57.722Z,17.40
2023-05-08T12:03:25.752Z,17.40
2023-05-08T12:05:57.177Z,17.40
2023-05-08T12:08:24.566Z,17.40
2023-05-08T12:10:52.774Z,17.80
2023-05-08T12:13:24.800Z,17.00
2023-05-08T12:15:57.115Z,17.40
2023-05-08T12:18:26.301Z,16.90
2023-05-08T12:20:56.842Z,17.40
2023-05-08T12:23:26.282Z,17.20
2023-05-08T12:25:55.132Z,17.40
2023-05-08T12:28:22.746Z,17.40
2023-05-08T12:30:50.396Z,17.10
2023-05-08T12:33:19.305Z,17.50
2023-05-08T12:35:46.568Z,16.90
2023-05-08T12:38:14.663Z,16.90
2023-05-08T12:40:48.958Z,17.40
2023-05-08T12:43:16.041Z,17.40
2023-05-08T12:45:43.277Z,17.50
2023-05-08T12:48:17.318Z,17.50
2023-05-08T12:50:46.362Z,17.80
2023-05-08T12:53:16.621Z,17.50
2023-05-08T12:55:54.958Z,17.70
2023-05-08T12:58:26.987Z,17.20
2023-05-08T13:01:03.324Z,17.30
2023-05-08T13:03:30.725Z,17.30
2023-05-08T13:05:58.786Z,17.20
2023-05-08T13:08:34.651Z,17.30
2023-05-08T13:11:03.816Z,17.30
2023-05-08T13:13:32.912Z,17.30
2023-05-08T13:16:06.790Z,17.20
2023-05-08T13:18:36.537Z,17.30
2023-05-08T13:21:03.853Z,17.30
2023-05-08T13:23:31.025Z,17.30
2023-05-08T13:25:58.126Z,16.70
2023-05-08T13:28:25.390Z,17.40
2023-05-08T13:30:52.429Z,17.70
2023-05-08T13:33:19.506Z,17.40
2023-05-08T13:35:47.337Z,17.50
2023-05-08T13:38:14.397Z,17.40
2023-05-08T13:40:41.734Z,17.50
2023-05-08T13:43:08.821Z,17.60
2023-05-08T13:45:35.892Z,17.50
2023-05-08T13:48:03.053Z,17.40
2023-05-08T13:50:30.226Z,17.40
2023-05-08T13:52:57.321Z,17.40
2023-05-08T13:55:24.541Z,17.30
2023-05-08T13:57:51.720Z,17.40
2023-05-08T14:00:19.319Z,17.10
2023-05-08T14:02:46.587Z,17.40
2023-05-08T14:05:14.087Z,17.30
2023-05-08T14:07:41.432Z,17.60
2023-05-08T14:10:08.811Z,17.40
2023-05-08T14:12:36.151Z,17.30
2023-05-08T14:15:07.131Z,17.30
2023-05-08T14:17:34.562Z,17.30
2023-05-08T14:20:01.719Z,17.40
2023-05-08T14:22:28.843Z,17.40
2023-05-08T14:24:55.968Z,17.70
2023-05-08T14:27:23.111Z,17.20
2023-05-08T14:29:50.288Z,17.40
2023-05-08T14:32:17.458Z,17.50
2023-05-08T14:34:44.674Z,17.40
2023-05-08T14:37:12.983Z,17.50
2023-05-08T14:39:40.074Z,17.40
2023-05-08T14:42:21.979Z,16.90
2023-05-08T14:44:50.730Z,17.40
2023-05-08T14:47:17.971Z,17.40
2023-05-08T14:49:45.050Z,17.40
2023-05-08T14:52:12.267Z,17.40
2023-05-08T14:54:39.712Z,17.50
2023-05-08T14:57:06.918Z,17.50
2023-05-08T14:59:34.058Z,16.80
2023-05-08T15:02:01.302Z,17.50
2023-05-08T15:04:28.421Z,17.60
2023-05-08T15:06:55.537Z,17.50
2023-05-08T15:09:22.598Z,17.40
2023-05-08T15:11:49.703Z,17.50
2023-05-08T15:14:16.744Z,17.40
2023-05-08T15:16:43.968Z,17.50
2023-05-08T15:19:11.239Z,17.40
2023-05-08T15:21:38.350Z,17.40
2023-05-08T15:24:05.709Z,17.30
2023-05-08T15:26:32.803Z,17.30
2023-05-08T15:29:00.060Z,17.50
2023-05-08T15:31:27.130Z,17.10
2023-05-08T15:33:54.328Z,17.40
2023-05-08T15:36:22.145Z,17.40
2023-05-08T15:38:49.585Z,17.40
2023-05-08T15:41:16.676Z,17.30
2023-05-08T15:43:45.223Z,17.30
2023-05-08T15:46:12.525Z,17.50
2023-05-08T15:48:39.620Z,17.50
2023-05-08T15:51:06.760Z,17.50
2023-05-08T15:53:34.607Z,17.40
2023-05-08T15:56:05.503Z,17.40
2023-05-08T15:58:32.570Z,17.40
2023-05-08T16:00:59.649Z,17.50
2023-05-08T16:03:30.339Z,17.40
2023-05-08T16:05:57.682Z,17.40
2023-05-08T16:08:24.813Z,17.40
2023-05-08T16:10:54.702Z,17.50
2023-05-08T16:13:21.935Z,17.50
2023-05-08T16:15:49.074Z,17.40
2023-05-08T16:18:16.181Z,17.60
2023-05-08T16:20:43.362Z,17.70
2023-05-08T16:23:10.454Z,17.70
2023-05-08T16:25:38.009Z,18.10
2023-05-08T16:28:05.061Z,17.90
2023-05-08T16:30:32.181Z,17.80
2023-05-08T16:32:59.265Z,17.80
2023-05-08T16:35:26.491Z,17.80
2023-05-08T16:37:53.600Z,17.70
2023-05-08T16:40:20.830Z,17.70
2023-05-08T16:42:48.007Z,18.10
2023-05-08T16:45:15.422Z,17.70
2023-05-08T16:47:42.762Z,17.10
2023-05-08T16:50:10.345Z,17.80
2023-05-08T16:52:38.094Z,17.90
2023-05-08T16:55:05.675Z,17.90
2023-05-08T16:57:32.759Z,17.90
2023-05-08T16:59:59.930Z,18.10
2023-05-08T17:02:27.141Z,18.20
2023-05-08T17:04:54.251Z,18.10
2023-05-08T17:07:21.317Z,18.10
2023-05-08T17:09:52.785Z,18.10
2023-05-08T17:12:19.869Z,18.10
2023-05-08T17:14:47.168Z,18.10
2023-05-08T17:17:14.253Z,17.90
2023-05-08T17:19:43.112Z,17.60
2023-05-08T17:22:10.466Z,18.00
2023-05-08T17:24:37.972Z,18.10
2023-05-08T17:27:08.417Z,18.00
2023-05-08T17:29:35.617Z,18.10
2023-05-08T17:32:02.895Z,18.10
2023-05-08T17:34:30.092Z,18.10
2023-05-08T17:36:57.214Z,18.10
2023-05-08T17:39:24.587Z,18.10
2023-05-08T17:41:51.882Z,18.10
2023-05-08T17:44:18.973Z,18.00
2023-05-08T17:46:46.269Z,18.00
2023-05-08T17:49:14.557Z,17.90
2023-05-08T17:51:42.531Z,18.00
2023-05-08T17:54:09.636Z,17.90
2023-05-08T17:56:36.773Z,17.40
2023-05-08T17:59:03.852Z,17.40
2023-05-08T18:01:30.966Z,18.00
2023-05-08T18:03:58.100Z,17.60
2023-05-08T18:06:25.240Z,18.00
2023-05-08T18:08:52.356Z,18.00
2023-05-08T18:11:22.320Z,18.00
2023-05-08T18:13:50.383Z,18.00
2023-05-08T18:16:19.079Z,18.00
2023-05-08T18:18:46.424Z,17.90
2023-05-08T18:21:13.886Z,16.90
2023-05-08T18:23:41.023Z,17.50
2023-05-08T18:26:08.090Z,17.80
2023-05-08T18:28:36.051Z,17.90
2023-05-08T18:31:03.459Z,17.90
2023-05-08T18:33:30.557Z,17.50
2023-05-08T18:35:57.681Z,17.90
2023-05-08T18:38:24.824Z,17.90
2023-05-08T18:40:51.981Z,17.90
2023-05-08T18:43:19.189Z,17.80
2023-05-08T18:45:46.306Z,17.80
2023-05-08T18:48:13.441Z,17.80
2023-05-08T18:50:40.638Z,17.90
2023-05-08T18:53:09.651Z,17.80
2023-05-08T18:55:37.150Z,17.80
2023-05-08T18:58:05.987Z,17.80
2023-05-08T19:00:33.313Z,17.30
2023-05-08T19:03:00.568Z,17.80
2023-05-08T19:05:27.691Z,17.90
2023-05-08T19:07:54.813Z,17.90
2023-05-08T19:10:21.885Z,17.90
2023-05-08T19:12:50.516Z,17.80
2023-05-08T19:15:17.848Z,18.00
2023-05-08T19:17:45.139Z,17.90
2023-05-08T19:20:13.367Z,17.80
2023-05-08T19:22:40.644Z,17.80
2023-05-08T19:25:08.254Z,17.90
2023-05-08T19:27:35.326Z,17.80
2023-05-08T19:30:02.431Z,17.80
2023-05-08T19:32:29.532Z,18.10
2023-05-08T19:34:57.420Z,17.50
2023-05-08T19:37:24.942Z,18.00
2023-05-08T19:39:52.158Z,17.70
2023-05-08T19:42:19.261Z,17.80
2023-05-08T19:44:46.681Z,17.80
2023-05-08T19:47:14.132Z,17.90
2023-05-08T19:49:41.203Z,18.00
2023-05-08T19:52:08.322Z,17.00
2023-05-08T19:54:35.408Z,18.00
2023-05-08T19:57:02.460Z,17.90
2023-05-08T19:59:29.496Z,17.80
2023-05-08T20:01:56.793Z,17.80
2023-05-08T20:04:24.247Z,16.50
2023-05-08T20:06:51.357Z,17.80
2023-05-08T20:09:18.472Z,17.60
2023-05-08T20:11:47.088Z,17.50
2023-05-08T20:14:14.225Z,17.60
2023-05-08T20:16:41.855Z,17.60
2023-05-08T20:19:09.097Z,17.60
2023-05-08T20:21:36.338Z,17.70
2023-05-08T20:24:03.663Z,17.40
2023-05-08T20:26:32.037Z,17.50
2023-05-08T20:28:59.652Z,17.80
2023-05-08T20:31:27.706Z,17.50
2023-05-08T20:33:54.930Z,17.30
2023-05-08T20:36:21.985Z,17.50
2023-05-08T20:38:49.078Z,17.70
2023-05-08T20:41:16.182Z,17.60
2023-05-08T20:43:43.628Z,17.60
2023-05-08T20:46:10.881Z,17.60
2023-05-08T20:48:38.366Z,17.70
2023-05-08T20:51:05.466Z,17.60
2023-05-08T20:53:32.697Z,17.60
2023-05-08T20:56:01.617Z,17.60
2023-05-08T20:58:28.830Z,17.60
2023-05-08T21:00:56.188Z,17.60
2023-05-08T21:03:23.434Z,17.50
2023-05-08T21:05:50.602Z,17.60
2023-05-08T21:08:21.837Z,17.40
2023-05-08T21:10:49.050Z,17.50
2023-05-08T21:13:16.266Z,17.50
2023-05-08T21:15:43.330Z,17.30
2023-05-08T21:18:11.846Z,17.50
2023-05-08T21:20:38.938Z,17.60
2023-05-08T21:23:06.008Z,17.50
2023-05-08T21:25:33.318Z,17.60
2023-05-08T21:28:00.486Z,17.50
2023-05-08T21:30:27.596Z,17.60
2023-05-08T21:32:54.696Z,18.20
2023-05-08T21:35:22.179Z,17.60
2023-05-08T21:37:53.853Z,17.60
2023-05-08T21:40:22.023Z,17.50
2023-05-08T21:42:49.104Z,17.50
2023-05-08T21:45:16.397Z,17.50
2023-05-08T21:47:43.536Z,17.10
2023-05-08T21:50:10.925Z,17.50
2023-05-08T21:52:37.995Z,17.40
2023-05-08T21:55:08.499Z,17.50
2023-05-08T21:57:35.947Z,17.50
2023-05-08T22:00:04.844Z,17.60
2023-05-08T22:02:32.008Z,17.60
2023-05-08T22:04:59.120Z,17.40
2023-05-08T22:07:26.213Z,17.30
2023-05-08T22:09:53.376Z,17.60
2023-05-08T22:12:20.431Z,17.70
2023-05-08T22:14:47.473Z,17.90
2023-05-08T22:17:14.586Z,17.80
2023-05-08T22:19:41.641Z,18.10
2023-05-08T22:22:08.837Z,18.00
2023-05-08T22:24:35.908Z,18.20
2023-05-08T22:27:03.014Z,17.70
2023-05-08T22:29:30.196Z,18.20
2023-05-08T22:31:57.268Z,18.30
2023-05-08T22:34:24.318Z,18.00
2023-05-08T22:36:51.468Z,18.30
2023-05-08T22:39:18.525Z,18.30
2023-05-08T22:41:45.675Z,18.20
2023-05-08T22:44:12.887Z,18.40
2023-05-08T22:46:40.135Z,18.50
2023-05-08T22:49:07.310Z,18.70
2023-05-08T22:51:36.217Z,18.40
2023-05-08T22:54:03.467Z,18.70
2023-05-08T22:56:30.592Z,17.60
2023-05-08T22:58:57.766Z,18.40
2023-05-08T23:01:25.161Z,18.30
2023-05-08T23:03:53.624Z,18.30
2023-05-08T23:06:20.900Z,19.30
2023-05-08T23:08:48.008Z,18.30
2023-05-08T23:11:15.445Z,18.30
2023-05-08T23:13:42.519Z,18.30
2023-05-08T23:16:09.592Z,18.20
2023-05-08T23:18:36.808Z,18.20
2023-05-08T23:21:07.833Z,18.30
2023-05-08T23:23:35.502Z,18.30
2023-05-08T23:26:04.884Z,18.20
2023-05-08T23:28:35.794Z,18.10
2023-05-08T23:31:03.833Z,18.10
2023-05-08T23:33:31.077Z,18.20
2023-05-08T23:35:58.709Z,18.00
2023-05-08T23:38:26.108Z,18.20
2023-05-08T23:40:53.196Z,18.30
2023-05-08T23:43:20.261Z,18.50
2023-05-08T23:45:47.389Z,18.30
2023-05-08T23:48:14.439Z,17.90
2023-05-08T23:50:41.832Z,18.30
2023-05-08T23:53:08.959Z,18.30
2023-05-08T23:55:37.127Z,18.20
2023-05-08T23:58:04.660Z,18.20
